createdAt,value
2023-01-06T00:00:18.856Z,0
2023-01-06T00:01:19.584Z,0
2023-01-06T00:02:20.588Z,0
2023-01-06T00:03:21.341Z,0
2023-01-06T00:04:22.212Z,0
2023-01-06T00:05:23.873Z,0
2023-01-06T00:06:25.421Z,0
2023-01-06T00:07:26.415Z,0
2023-01-06T00:08:27.219Z,0
2023-01-06T00:09:28.065Z,0
2023-01-06T00:10:29.117Z,0
2023-01-06T00:11:30.152Z,0
2023-01-06T00:12:31.081Z,0
2023-01-06T00:13:31.917Z,0
2023-01-06T00:14:32.710Z,0
2023-01-06T00:15:34.581Z,0
2023-01-06T00:16:35.528Z,0
2023-01-06T00:17:36.432Z,0
2023-01-06T00:18:38.457Z,0
2023-01-06T00:19:39.278Z,0
2023-01-06T00:20:40.063Z,0
2023-01-06T00:21:40.896Z,0
2023-01-06T00:22:41.791Z,0
2023-01-06T00:23:42.813Z,0
2023-01-06T00:24:43.663Z,0
2023-01-06T00:25:45.313Z,0
2023-01-06T00:26:46.655Z,0
2023-01-06T00:28:17.942Z,0
2023-01-06T00:29:18.876Z,0
2023-01-06T00:30:19.747Z,0
2023-01-06T00:31:20.646Z,0
2023-01-06T00:32:21.427Z,0
2023-01-06T00:33:22.401Z,0
2023-01-06T00:34:23.428Z,0
2023-01-06T00:35:24.908Z,0
2023-01-06T00:36:25.712Z,0
2023-01-06T00:37:26.547Z,0
2023-01-06T00:38:27.687Z,0
2023-01-06T00:39:28.589Z,0
2023-01-06T00:40:29.412Z,0
2023-01-06T00:41:30.247Z,0
2023-01-06T00:42:31.933Z,0
2023-01-06T00:43:32.840Z,0
2023-01-06T00:44:33.763Z,0
2023-01-06T00:45:35.475Z,0
2023-01-06T00:46:36.505Z,0
2023-01-06T00:47:37.193Z,0
2023-01-06T00:48:38.095Z,0
2023-01-06T00:49:39.018Z,0
2023-01-06T00:50:40.436Z,0
2023-01-06T00:51:41.332Z,0
2023-01-06T00:52:42.081Z,0
2023-01-06T00:53:43.002Z,0
2023-01-06T00:54:43.912Z,0
2023-01-06T00:55:45.416Z,0
2023-01-06T00:57:16.933Z,0
2023-01-06T00:58:17.815Z,0
2023-01-06T00:59:18.675Z,0
2023-01-06T01:00:19.583Z,0
2023-01-06T01:01:20.695Z,0
2023-01-06T01:02:21.667Z,0
2023-01-06T01:03:22.168Z,0
2023-01-06T01:04:22.978Z,0
2023-01-06T01:05:24.457Z,0
2023-01-06T01:06:25.357Z,0
2023-01-06T01:07:26.251Z,0
2023-01-06T01:08:27.089Z,0
2023-01-06T01:09:28.128Z,0
2023-01-06T01:10:29.049Z,0
2023-01-06T01:11:30.954Z,0
2023-01-06T01:12:32.025Z,0
2023-01-06T01:13:32.888Z,0
2023-01-06T01:14:33.666Z,0
2023-01-06T01:15:35.519Z,0
2023-01-06T01:16:36.454Z,0
2023-01-06T01:17:37.405Z,0
2023-01-06T01:18:38.318Z,0
2023-01-06T01:19:39.866Z,0
2023-01-06T01:20:40.836Z,0
2023-01-06T01:21:42.424Z,0
2023-01-06T01:22:43.295Z,0
2023-01-06T01:23:44.112Z,0
2023-01-06T01:24:44.914Z,0
2023-01-06T01:26:17.381Z,0
2023-01-06T01:27:18.305Z,0
2023-01-06T01:28:19.161Z,0
2023-01-06T01:29:19.931Z,0
2023-01-06T01:30:20.686Z,0
2023-01-06T01:31:21.599Z,0
2023-01-06T01:32:22.458Z,0
2023-01-06T01:33:23.942Z,0
2023-01-06T01:34:24.826Z,0
2023-01-06T01:35:25.570Z,0
2023-01-06T01:36:27.353Z,0
2023-01-06T01:37:28.255Z,0
2023-01-06T01:38:29.202Z,0
2023-01-06T01:39:29.992Z,0
2023-01-06T01:40:30.806Z,0
2023-01-06T01:41:31.581Z,0
2023-01-06T01:42:32.450Z,0
2023-01-06T01:43:33.444Z,0
2023-01-06T01:44:34.250Z,0
2023-01-06T01:45:35.899Z,0
2023-01-06T01:46:36.863Z,0
2023-01-06T01:47:37.557Z,0
2023-01-06T01:48:38.523Z,0
2023-01-06T01:49:39.448Z,0
2023-01-06T01:50:40.345Z,0
2023-01-06T01:51:41.784Z,0
2023-01-06T01:52:42.590Z,0
2023-01-06T01:53:43.500Z,0
2023-01-06T01:54:44.463Z,0
2023-01-06T01:56:16.770Z,0
2023-01-06T01:57:17.687Z,0
2023-01-06T01:58:18.629Z,0
2023-01-06T01:59:19.551Z,0
2023-01-06T02:00:21.502Z,0
2023-01-06T02:01:22.535Z,0
2023-01-06T02:02:23.293Z,0
2023-01-06T02:03:23.917Z,0
2023-01-06T02:04:24.975Z,0
2023-01-06T02:05:25.844Z,0
2023-01-06T02:06:27.397Z,0
2023-01-06T02:07:28.137Z,0
2023-01-06T02:08:28.927Z,0
2023-01-06T02:09:29.922Z,0
2023-01-06T02:10:30.727Z,0
2023-01-06T02:11:31.641Z,0
2023-01-06T02:12:32.470Z,0
2023-01-06T02:13:33.266Z,0
2023-01-06T02:14:34.125Z,0
2023-01-06T02:15:35.030Z,0
2023-01-06T02:16:36.911Z,0
2023-01-06T02:17:37.806Z,0
2023-01-06T02:18:38.623Z,0
2023-01-06T02:19:39.403Z,0
2023-01-06T02:20:40.284Z,0
2023-01-06T02:21:41.928Z,0
2023-01-06T02:22:42.878Z,0
2023-01-06T02:23:43.679Z,0
2023-01-06T02:24:44.489Z,0
2023-01-06T02:26:16.868Z,0
2023-01-06T02:27:18.467Z,0
2023-01-06T02:28:19.406Z,0
2023-01-06T02:29:20.173Z,0
2023-01-06T02:30:21.056Z,0
2023-01-06T02:31:21.968Z,0
2023-01-06T02:32:23.477Z,0
2023-01-06T02:33:24.367Z,0
2023-01-06T02:34:25.244Z,0
2023-01-06T02:35:26.015Z,0
2023-01-06T02:36:27.340Z,0
2023-01-06T02:37:28.331Z,0
2023-01-06T02:38:29.239Z,0
2023-01-06T02:39:30.081Z,0
2023-01-06T02:40:30.918Z,0
2023-01-06T02:41:31.689Z,0
2023-01-06T02:42:32.664Z,0
2023-01-06T02:43:33.521Z,0
2023-01-06T02:44:34.432Z,0
2023-01-06T02:45:35.333Z,0
2023-01-06T02:46:36.896Z,0
2023-01-06T02:47:37.674Z,0
2023-01-06T02:48:38.615Z,0
2023-01-06T02:49:39.493Z,0
2023-01-06T02:50:41.073Z,0
2023-01-06T02:51:41.764Z,0
2023-01-06T02:52:42.559Z,0
2023-01-06T02:53:43.489Z,0
2023-01-06T02:54:44.812Z,0
2023-01-06T02:56:16.942Z,0
2023-01-06T02:57:17.839Z,0
2023-01-06T02:58:18.762Z,0
2023-01-06T02:59:19.714Z,0
2023-01-06T03:00:20.658Z,0
2023-01-06T03:01:21.772Z,0
2023-01-06T03:02:22.472Z,0
2023-01-06T03:03:23.241Z,0
2023-01-06T03:04:24.179Z,0
2023-01-06T03:05:25.057Z,0
2023-01-06T03:06:26.974Z,0
2023-01-06T03:07:28.193Z,0
2023-01-06T03:08:28.989Z,0
2023-01-06T03:09:29.730Z,0
2023-01-06T03:10:30.636Z,0
2023-01-06T03:11:31.552Z,0
2023-01-06T03:12:32.468Z,0
2023-01-06T03:13:33.263Z,0
2023-01-06T03:14:34.042Z,0
2023-01-06T03:15:34.952Z,0
2023-01-06T03:16:36.475Z,0
2023-01-06T03:17:37.313Z,0
2023-01-06T03:18:38.838Z,0
2023-01-06T03:19:39.670Z,0
2023-01-06T03:20:40.543Z,0
2023-01-06T03:21:42.408Z,0
2023-01-06T03:22:43.311Z,0
2023-01-06T03:23:44.640Z,0
2023-01-06T03:25:15.871Z,0
2023-01-06T03:26:17.503Z,0
2023-01-06T03:27:18.646Z,0
2023-01-06T03:28:19.435Z,0
2023-01-06T03:29:20.259Z,0
2023-01-06T03:30:21.019Z,0
2023-01-06T03:31:21.922Z,0
2023-01-06T03:32:22.763Z,0
2023-01-06T03:33:23.647Z,0
2023-01-06T03:34:24.519Z,0
2023-01-06T03:35:25.357Z,0
2023-01-06T03:36:26.918Z,0
2023-01-06T03:37:28.214Z,0
2023-01-06T03:38:29.065Z,0
2023-01-06T03:39:29.980Z,0
2023-01-06T03:40:30.824Z,0
2023-01-06T03:41:31.619Z,0
2023-01-06T03:42:36.354Z,0
2023-01-06T03:43:33.897Z,0
2023-01-06T03:44:34.828Z,0
2023-01-06T03:45:35.676Z,0
2023-01-06T03:46:37.433Z,0
2023-01-06T03:47:38.181Z,0
2023-01-06T03:48:39.060Z,0
2023-01-06T03:49:39.958Z,0
2023-01-06T03:50:40.917Z,0
2023-01-06T03:51:42.270Z,0
2023-01-06T03:52:43.001Z,0
2023-01-06T03:53:44.314Z,0
2023-01-06T03:55:15.631Z,0
2023-01-06T03:56:16.464Z,0
2023-01-06T03:57:17.997Z,0
2023-01-06T03:58:18.755Z,0
2023-01-06T03:59:19.512Z,0
2023-01-06T04:00:20.338Z,0
2023-01-06T04:01:21.370Z,0
2023-01-06T04:02:21.995Z,0
2023-01-06T04:03:22.723Z,0
2023-01-06T04:04:23.497Z,0
2023-01-06T04:05:24.380Z,0
2023-01-06T04:06:25.920Z,0
2023-01-06T04:07:26.765Z,0
2023-01-06T04:08:28.446Z,0
2023-01-06T04:09:29.163Z,0
2023-01-06T04:10:30.060Z,0
2023-01-06T04:11:30.913Z,0
2023-01-06T04:12:31.754Z,0
2023-01-06T04:13:32.524Z,0
2023-01-06T04:14:33.372Z,0
2023-01-06T04:15:34.125Z,0
2023-01-06T04:16:35.975Z,0
2023-01-06T04:17:37.416Z,0
2023-01-06T04:18:38.345Z,0
2023-01-06T04:19:39.122Z,0
2023-01-06T04:20:39.904Z,0
2023-01-06T04:21:41.699Z,0
2023-01-06T04:22:42.661Z,0
2023-01-06T04:23:44.004Z,0
2023-01-06T04:25:15.165Z,0
2023-01-06T04:26:15.954Z,0
2023-01-06T04:27:17.409Z,0
2023-01-06T04:28:18.354Z,0
2023-01-06T04:29:19.259Z,0
2023-01-06T04:30:19.981Z,0
2023-01-06T04:31:20.910Z,0
2023-01-06T04:32:21.748Z,0
2023-01-06T04:33:23.448Z,0
2023-01-06T04:34:24.369Z,0
2023-01-06T04:35:25.104Z,0
2023-01-06T04:36:25.917Z,0
2023-01-06T04:37:27.355Z,0
2023-01-06T04:38:28.268Z,0
2023-01-06T04:39:29.113Z,0
2023-01-06T04:40:29.889Z,0
2023-01-06T04:41:30.785Z,0
2023-01-06T04:42:31.555Z,0
2023-01-06T04:43:32.395Z,0
2023-01-06T04:44:33.423Z,0
2023-01-06T04:45:34.193Z,0
2023-01-06T04:46:34.918Z,0
2023-01-06T04:47:36.273Z,0
2023-01-06T04:48:37.119Z,0
2023-01-06T04:49:38.030Z,0
2023-01-06T04:50:38.848Z,0
2023-01-06T04:51:40.415Z,0
2023-01-06T04:52:41.173Z,0
2023-01-06T04:53:42.016Z,0
2023-01-06T04:54:42.899Z,0
2023-01-06T04:56:14.907Z,0
2023-01-06T04:57:16.269Z,0
2023-01-06T04:58:17.019Z,0
2023-01-06T04:59:17.970Z,0
2023-01-06T05:00:18.877Z,0
2023-01-06T05:01:19.817Z,0
2023-01-06T05:02:20.403Z,0
2023-01-06T05:03:21.176Z,0
2023-01-06T05:04:22.113Z,0
2023-01-06T05:05:22.994Z,0
2023-01-06T05:06:23.833Z,0
2023-01-06T05:07:25.477Z,0
2023-01-06T05:08:26.322Z,0
2023-01-06T05:09:27.131Z,0
2023-01-06T05:10:28.169Z,0
2023-01-06T05:11:29.020Z,0
2023-01-06T05:12:29.853Z,0
2023-01-06T05:13:30.643Z,0
2023-01-06T05:14:31.439Z,0
2023-01-06T05:15:32.284Z,0
2023-01-06T05:16:33.196Z,0
2023-01-06T05:17:34.904Z,0
2023-01-06T05:18:35.677Z,0
2023-01-06T05:19:36.468Z,0
2023-01-06T05:20:37.807Z,0
2023-01-06T05:21:38.624Z,0
2023-01-06T05:22:40.378Z,0
2023-01-06T05:23:41.236Z,0
2023-01-06T05:24:42.041Z,0
2023-01-06T05:25:43.280Z,0
2023-01-06T05:27:15.435Z,0
2023-01-06T05:28:16.297Z,0
2023-01-06T05:29:17.103Z,0
2023-01-06T05:30:17.955Z,0
2023-01-06T05:31:19.413Z,0
2023-01-06T05:32:20.237Z,0
2023-01-06T05:33:21.133Z,0
2023-01-06T05:34:22.019Z,0
2023-01-06T05:35:22.771Z,0
2023-01-06T05:36:24.278Z,0
2023-01-06T05:37:25.994Z,0
2023-01-06T05:38:26.875Z,0
2023-01-06T05:39:27.974Z,0
2023-01-06T05:40:28.815Z,0
2023-01-06T05:41:29.722Z,0
2023-01-06T05:42:30.514Z,0
2023-01-06T05:43:32.410Z,0
2023-01-06T05:44:33.359Z,0
2023-01-06T05:45:34.226Z,0
2023-01-06T05:46:35.005Z,0
2023-01-06T05:47:36.252Z,0
2023-01-06T05:48:37.194Z,0
2023-01-06T05:49:38.065Z,0
2023-01-06T05:50:39.446Z,0
2023-01-06T05:51:40.329Z,0
2023-01-06T05:52:41.057Z,0
2023-01-06T05:53:41.871Z,0
2023-01-06T05:54:43.171Z,0
2023-01-06T05:56:15.358Z,0
2023-01-06T05:57:16.919Z,0
2023-01-06T05:58:17.748Z,0
2023-01-06T05:59:18.676Z,0
2023-01-06T06:00:19.612Z,0
2023-01-06T06:01:20.467Z,0
2023-01-06T06:02:21.299Z,0
2023-01-06T06:03:22.023Z,0
2023-01-06T06:04:22.772Z,0
2023-01-06T06:05:23.720Z,0
2023-01-06T06:06:24.679Z,0
2023-01-06T06:07:26.420Z,0
2023-01-06T06:08:27.218Z,0
2023-01-06T06:09:28.072Z,0
2023-01-06T06:10:28.935Z,0
2023-01-06T06:11:30.397Z,0
2023-01-06T06:12:31.293Z,0
2023-01-06T06:13:32.041Z,0
2023-01-06T06:14:32.948Z,0
2023-01-06T06:15:33.815Z,0
2023-01-06T06:16:34.746Z,0
2023-01-06T06:17:36.542Z,0
2023-01-06T06:18:37.201Z,0
2023-01-06T06:19:38.090Z,0
2023-01-06T06:20:38.785Z,0
2023-01-06T06:21:40.403Z,0
2023-01-06T06:22:41.355Z,0
2023-01-06T06:23:42.230Z,0
2023-01-06T06:25:13.407Z,0
2023-01-06T06:26:14.276Z,0
2023-01-06T06:27:15.149Z,0
2023-01-06T06:28:16.897Z,0
2023-01-06T06:29:17.755Z,0
2023-01-06T06:30:18.577Z,0
2023-01-06T06:31:19.449Z,0
2023-01-06T06:32:20.202Z,0
2023-01-06T06:33:21.882Z,0
2023-01-06T06:34:22.728Z,0
2023-01-06T06:35:23.495Z,0
2023-01-06T06:36:24.284Z,0
2023-01-06T06:37:25.092Z,0
2023-01-06T06:38:26.894Z,0
2023-01-06T06:39:27.995Z,0
2023-01-06T06:40:28.790Z,0
2023-01-06T06:41:29.560Z,0
2023-01-06T06:42:30.352Z,0
2023-01-06T06:43:31.280Z,0
2023-01-06T06:44:32.171Z,0
2023-01-06T06:45:33.053Z,0
2023-01-06T06:46:33.820Z,0
2023-01-06T06:47:35.435Z,0
2023-01-06T06:48:36.303Z,0
2023-01-06T06:49:37.090Z,0
2023-01-06T06:50:38.434Z,0
2023-01-06T06:51:39.223Z,0
2023-01-06T06:52:39.996Z,0
2023-01-06T06:53:40.821Z,0
2023-01-06T06:54:41.671Z,0
2023-01-06T06:56:13.874Z,0
2023-01-06T06:57:14.629Z,0
2023-01-06T06:58:16.264Z,0
2023-01-06T06:59:17.129Z,0
2023-01-06T07:00:18.073Z,0
2023-01-06T07:01:19.161Z,4
2023-01-06T07:02:19.917Z,0
2023-01-06T07:03:20.509Z,0
2023-01-06T07:04:21.495Z,0
2023-01-06T07:05:22.193Z,0
2023-01-06T07:06:23.155Z,4
2023-01-06T07:07:23.979Z,4
2023-01-06T07:08:25.245Z,4
2023-01-06T07:09:26.034Z,4
2023-01-06T07:10:26.885Z,4
2023-01-06T07:11:28.425Z,4
2023-01-06T07:12:29.366Z,8
2023-01-06T07:13:30.143Z,8
2023-01-06T07:14:31.290Z,8
2023-01-06T07:15:32.293Z,8
2023-01-06T07:16:33.859Z,8
2023-01-06T07:17:34.700Z,8
2023-01-06T07:18:36.301Z,8
2023-01-06T07:19:37.067Z,12
2023-01-06T07:20:37.816Z,12
2023-01-06T07:21:39.416Z,12
2023-01-06T07:22:40.402Z,16
2023-01-06T07:23:41.163Z,20
2023-01-06T07:25:12.619Z,20
2023-01-06T07:26:13.428Z,20
2023-01-06T07:27:14.291Z,24
2023-01-06T07:28:15.874Z,24
2023-01-06T07:29:16.633Z,24
2023-01-06T07:30:18.378Z,28
2023-01-06T07:31:19.098Z,28
2023-01-06T07:32:19.888Z,28
2023-01-06T07:33:20.792Z,28
2023-01-06T07:34:21.630Z,28
2023-01-06T07:35:22.394Z,28
2023-01-06T07:36:23.155Z,32
2023-01-06T07:37:24.017Z,32
2023-01-06T07:38:25.865Z,32
2023-01-06T07:39:26.774Z,36
2023-01-06T07:40:27.880Z,36
2023-01-06T07:41:28.560Z,40
2023-01-06T07:42:29.414Z,36
2023-01-06T07:43:30.298Z,36
2023-01-06T07:44:31.206Z,40
2023-01-06T07:45:32.091Z,40
2023-01-06T07:46:32.840Z,44
2023-01-06T07:47:33.717Z,48
2023-01-06T07:48:35.363Z,44
2023-01-06T07:49:36.281Z,44
2023-01-06T07:50:37.145Z,48
2023-01-06T07:51:38.390Z,48
2023-01-06T07:52:39.204Z,52
2023-01-06T07:53:40.093Z,56
2023-01-06T07:54:41.010Z,64
2023-01-06T07:56:13.376Z,72
2023-01-06T07:57:14.136Z,76
2023-01-06T07:58:15.933Z,80
2023-01-06T07:59:16.827Z,76
2023-01-06T08:00:17.723Z,76
2023-01-06T08:01:19.559Z,72
2023-01-06T08:02:20.232Z,68
2023-01-06T08:03:21.004Z,64
2023-01-06T08:04:21.653Z,64
2023-01-06T08:05:22.529Z,68
2023-01-06T08:06:23.408Z,72
2023-01-06T08:07:24.173Z,72
2023-01-06T08:08:25.886Z,72
2023-01-06T08:09:26.631Z,72
2023-01-06T08:10:27.767Z,76
2023-01-06T08:11:28.722Z,80
2023-01-06T08:12:29.479Z,84
2023-01-06T08:13:30.241Z,88
2023-01-06T08:14:31.805Z,88
2023-01-06T08:15:32.738Z,84
2023-01-06T08:16:33.621Z,84
2023-01-06T08:17:34.481Z,84
2023-01-06T08:18:35.798Z,84
2023-01-06T08:19:36.542Z,84
2023-01-06T08:20:37.914Z,88
2023-01-06T08:21:39.511Z,88
2023-01-06T08:22:40.434Z,100
2023-01-06T08:24:11.935Z,96
2023-01-06T08:25:12.808Z,92
2023-01-06T08:26:13.754Z,92
2023-01-06T08:27:14.630Z,96
2023-01-06T08:28:16.476Z,100
2023-01-06T08:29:17.342Z,100
2023-01-06T08:30:18.147Z,104
2023-01-06T08:31:19.044Z,108
2023-01-06T08:32:19.914Z,112
2023-01-06T08:33:20.825Z,116
2023-01-06T08:34:21.700Z,112
2023-01-06T08:35:22.620Z,112
2023-01-06T08:36:23.539Z,112
2023-01-06T08:37:24.566Z,116
2023-01-06T08:38:25.902Z,120
2023-01-06T08:39:27.464Z,124
2023-01-06T08:40:28.303Z,124
2023-01-06T08:41:29.100Z,120
2023-01-06T08:42:29.956Z,112
2023-01-06T08:43:30.936Z,108
2023-01-06T08:44:31.879Z,112
2023-01-06T08:45:32.742Z,120
2023-01-06T08:46:33.650Z,128
2023-01-06T08:47:34.608Z,132
2023-01-06T08:48:36.441Z,132
2023-01-06T08:49:37.329Z,124
2023-01-06T08:50:38.174Z,124
2023-01-06T08:51:39.920Z,128
2023-01-06T08:52:41.160Z,136
2023-01-06T08:54:12.309Z,144
2023-01-06T08:55:13.129Z,144
2023-01-06T08:56:13.973Z,132
2023-01-06T08:57:14.835Z,124
2023-01-06T08:58:15.808Z,128
2023-01-06T08:59:17.371Z,128
2023-01-06T09:00:18.283Z,124
2023-01-06T09:01:19.262Z,124
2023-01-06T09:02:20.039Z,132
2023-01-06T09:03:21.334Z,136
2023-01-06T09:04:22.068Z,140
2023-01-06T09:05:22.881Z,144
2023-01-06T09:06:23.724Z,140
2023-01-06T09:07:24.566Z,140
2023-01-06T09:08:25.925Z,132
2023-01-06T09:09:26.760Z,128
2023-01-06T09:10:27.856Z,124
2023-01-06T09:11:28.809Z,128
2023-01-06T09:12:29.705Z,136
2023-01-06T09:13:30.471Z,144
2023-01-06T09:14:31.317Z,152
2023-01-06T09:15:32.211Z,156
2023-01-06T09:16:32.996Z,164
2023-01-06T09:17:33.750Z,172
2023-01-06T09:18:34.593Z,188
2023-01-06T09:19:35.415Z,200
2023-01-06T09:20:36.310Z,204
2023-01-06T09:21:37.137Z,200
2023-01-06T09:22:38.059Z,196
2023-01-06T09:23:38.964Z,184
2023-01-06T09:24:39.581Z,176
2023-01-06T09:25:40.879Z,176
2023-01-06T09:27:12.194Z,172
2023-01-06T09:28:13.162Z,172
2023-01-06T09:29:14.968Z,184
2023-01-06T09:30:15.719Z,200
2023-01-06T09:31:17.498Z,216
2023-01-06T09:32:18.376Z,244
2023-01-06T09:33:19.290Z,272
2023-01-06T09:34:20.157Z,292
2023-01-06T09:35:20.870Z,304
2023-01-06T09:36:21.747Z,304
2023-01-06T09:37:22.546Z,328
2023-01-06T09:38:23.410Z,340
2023-01-06T09:39:24.891Z,352
2023-01-06T09:40:25.690Z,356
2023-01-06T09:41:26.567Z,364
2023-01-06T09:42:27.670Z,384
2023-01-06T09:43:28.593Z,392
2023-01-06T09:44:29.439Z,404
2023-01-06T09:45:30.157Z,428
2023-01-06T09:46:30.914Z,452
2023-01-06T09:47:31.715Z,492
2023-01-06T09:48:32.640Z,524
2023-01-06T09:49:34.427Z,532
2023-01-06T09:50:35.263Z,528
2023-01-06T09:51:36.931Z,532
2023-01-06T09:52:37.784Z,504
2023-01-06T09:53:38.738Z,464
2023-01-06T09:54:39.802Z,448
2023-01-06T09:56:11.145Z,488
2023-01-06T09:57:12.909Z,504
2023-01-06T09:58:13.682Z,528
2023-01-06T09:59:15.265Z,552
2023-01-06T10:00:18.338Z,580
2023-01-06T10:01:17.193Z,588
2023-01-06T10:02:17.941Z,584
2023-01-06T10:03:18.716Z,572
2023-01-06T10:04:19.634Z,532
2023-01-06T10:05:20.666Z,496
2023-01-06T10:06:21.498Z,480
2023-01-06T10:07:22.214Z,452
2023-01-06T10:08:23.031Z,436
2023-01-06T10:09:24.866Z,444
2023-01-06T10:10:25.825Z,464
2023-01-06T10:11:26.635Z,448
2023-01-06T10:12:27.354Z,424
2023-01-06T10:13:28.078Z,408
2023-01-06T10:14:28.881Z,404
2023-01-06T10:15:29.801Z,404
2023-01-06T10:16:30.688Z,416
2023-01-06T10:17:31.480Z,440
2023-01-06T10:18:32.801Z,444
2023-01-06T10:19:34.282Z,464
2023-01-06T10:20:35.155Z,480
2023-01-06T10:21:36.000Z,464
2023-01-06T10:22:37.356Z,424
2023-01-06T10:23:38.064Z,404
2023-01-06T10:24:38.834Z,404
2023-01-06T10:25:40.096Z,400
2023-01-06T10:27:11.324Z,396
2023-01-06T10:28:12.200Z,392
2023-01-06T10:29:13.907Z,376
2023-01-06T10:30:14.705Z,360
2023-01-06T10:31:15.905Z,344
2023-01-06T10:32:16.768Z,328
2023-01-06T10:33:17.592Z,308
2023-01-06T10:34:18.425Z,284
2023-01-06T10:35:19.194Z,272
2023-01-06T10:36:20.057Z,268
2023-01-06T10:37:20.935Z,272
2023-01-06T10:38:21.815Z,284
2023-01-06T10:39:23.380Z,296
2023-01-06T10:40:24.214Z,300
2023-01-06T10:41:25.140Z,320
2023-01-06T10:42:26.045Z,336
2023-01-06T10:43:28.132Z,336
2023-01-06T10:44:28.918Z,348
2023-01-06T10:45:29.727Z,352
2023-01-06T10:46:30.654Z,364
2023-01-06T10:47:31.491Z,360
2023-01-06T10:48:32.296Z,372
2023-01-06T10:49:33.853Z,400
2023-01-06T10:50:34.607Z,404
2023-01-06T10:51:36.357Z,408
2023-01-06T10:52:37.179Z,416
2023-01-06T10:53:38.107Z,404
2023-01-06T10:54:38.977Z,400
2023-01-06T10:56:10.945Z,408
2023-01-06T10:57:11.731Z,440
2023-01-06T10:58:12.601Z,452
2023-01-06T10:59:14.485Z,452
2023-01-06T11:00:15.428Z,444
2023-01-06T11:01:16.378Z,412
2023-01-06T11:02:17.163Z,388
2023-01-06T11:03:32.941Z,376
2023-01-06T11:04:19.051Z,384
2023-01-06T11:05:19.936Z,408
2023-01-06T11:06:20.738Z,424
2023-01-06T11:07:21.606Z,416
2023-01-06T11:08:23.444Z,404
2023-01-06T11:09:24.934Z,400
2023-01-06T11:10:25.777Z,396
2023-01-06T11:11:28.424Z,388
2023-01-06T11:12:27.494Z,384
2023-01-06T11:13:28.240Z,376
2023-01-06T11:14:29.122Z,356
2023-01-06T11:15:30.008Z,336
2023-01-06T11:16:31.062Z,336
2023-01-06T11:17:31.775Z,376
2023-01-06T11:18:32.563Z,404
2023-01-06T11:19:34.436Z,444
2023-01-06T11:20:35.382Z,484
2023-01-06T11:21:36.239Z,492
2023-01-06T11:22:37.911Z,508
2023-01-06T11:23:41.005Z,524
2023-01-06T11:25:10.123Z,520
2023-01-06T11:26:11.177Z,516
2023-01-06T11:27:12.037Z,488
2023-01-06T11:28:12.854Z,460
2023-01-06T11:29:13.675Z,440
2023-01-06T11:30:15.328Z,408
2023-01-06T11:31:16.321Z,388
2023-01-06T11:32:18.032Z,360
2023-01-06T11:33:18.940Z,368
2023-01-06T11:34:19.752Z,340
2023-01-06T11:35:20.537Z,308
2023-01-06T11:36:21.412Z,276
2023-01-06T11:37:22.293Z,268
2023-01-06T11:38:23.203Z,252
2023-01-06T11:39:24.938Z,232
2023-01-06T11:40:25.738Z,220
2023-01-06T11:41:26.684Z,232
2023-01-06T11:42:27.812Z,272
2023-01-06T11:43:28.725Z,288
2023-01-06T11:44:29.514Z,272
2023-01-06T11:45:30.371Z,252
2023-01-06T11:46:31.114Z,284
2023-01-06T11:47:32.016Z,300
2023-01-06T11:48:32.889Z,312
2023-01-06T11:49:34.402Z,332
2023-01-06T11:50:35.182Z,340
2023-01-06T11:51:36.920Z,328
2023-01-06T11:52:37.673Z,296
2023-01-06T11:53:38.517Z,288
2023-01-06T11:55:09.673Z,284
2023-01-06T11:56:11.416Z,292
2023-01-06T11:57:12.178Z,308
2023-01-06T11:58:13.027Z,332
2023-01-06T11:59:13.954Z,364
2023-01-06T12:00:15.342Z,396
2023-01-06T12:01:16.956Z,440
2023-01-06T12:02:17.770Z,484
2023-01-06T12:03:18.532Z,508
2023-01-06T12:04:19.244Z,512
2023-01-06T12:05:19.990Z,508
2023-01-06T12:06:20.836Z,492
2023-01-06T12:07:21.648Z,448
2023-01-06T12:08:22.456Z,412
2023-01-06T12:09:23.248Z,416
2023-01-06T12:10:24.809Z,440
2023-01-06T12:11:25.616Z,472
2023-01-06T12:12:26.389Z,456
2023-01-06T12:13:27.189Z,476
2023-01-06T12:14:29.439Z,500
2023-01-06T12:15:28.801Z,480
2023-01-06T12:16:29.761Z,448
2023-01-06T12:17:30.626Z,452
2023-01-06T12:18:31.316Z,436
2023-01-06T12:19:32.154Z,444
2023-01-06T12:20:33.782Z,472
2023-01-06T12:21:34.600Z,480
2023-01-06T12:22:35.899Z,492
2023-01-06T12:23:36.695Z,508
2023-01-06T12:24:37.547Z,472
2023-01-06T12:25:38.721Z,532
2023-01-06T12:27:09.882Z,536
2023-01-06T12:28:10.839Z,536
2023-01-06T12:29:11.660Z,508
2023-01-06T12:30:13.472Z,488
2023-01-06T12:31:14.351Z,568
2023-01-06T12:32:15.013Z,596
2023-01-06T12:33:15.814Z,580
2023-01-06T12:34:16.650Z,568
2023-01-06T12:35:18.508Z,564
2023-01-06T12:36:19.257Z,584
2023-01-06T12:37:20.053Z,588
2023-01-06T12:38:21.765Z,580
2023-01-06T12:39:22.531Z,540
2023-01-06T12:40:23.905Z,496
2023-01-06T12:41:25.404Z,540
2023-01-06T12:42:26.270Z,528
2023-01-06T12:43:27.179Z,536
2023-01-06T12:44:28.134Z,476
2023-01-06T12:45:28.959Z,488
2023-01-06T12:46:29.839Z,532
2023-01-06T12:47:30.595Z,548
2023-01-06T12:48:31.496Z,536
2023-01-06T12:49:32.303Z,536
2023-01-06T12:50:33.902Z,520
2023-01-06T12:51:34.716Z,440
2023-01-06T12:52:36.424Z,452
2023-01-06T12:53:37.265Z,488
2023-01-06T12:54:38.565Z,488
2023-01-06T12:56:09.805Z,468
2023-01-06T12:57:10.597Z,460
2023-01-06T12:58:11.378Z,448
2023-01-06T12:59:12.222Z,428
2023-01-06T13:00:13.884Z,404
2023-01-06T13:01:14.848Z,400
2023-01-06T13:02:15.582Z,416
2023-01-06T13:03:16.336Z,368
2023-01-06T13:04:17.196Z,428
2023-01-06T13:05:18.055Z,420
2023-01-06T13:06:18.941Z,380
2023-01-06T13:07:19.714Z,400
2023-01-06T13:08:20.513Z,392
2023-01-06T13:09:21.293Z,372
2023-01-06T13:10:22.925Z,368
2023-01-06T13:11:23.722Z,360
2023-01-06T13:12:24.507Z,364
2023-01-06T13:13:25.317Z,368
2023-01-06T13:14:26.247Z,360
2023-01-06T13:15:27.084Z,352
2023-01-06T13:16:28.125Z,344
2023-01-06T13:17:28.912Z,344
2023-01-06T13:18:29.586Z,344
2023-01-06T13:19:30.408Z,356
2023-01-06T13:20:31.892Z,364
2023-01-06T13:21:32.746Z,372
2023-01-06T13:22:33.539Z,368
2023-01-06T13:23:35.278Z,344
2023-01-06T13:24:36.125Z,316
2023-01-06T13:25:36.879Z,372
2023-01-06T13:26:38.157Z,376
2023-01-06T13:28:09.404Z,368
2023-01-06T13:29:10.153Z,364
2023-01-06T13:30:11.906Z,368
2023-01-06T13:31:12.815Z,368
2023-01-06T13:32:13.579Z,360
2023-01-06T13:33:14.354Z,356
2023-01-06T13:34:15.158Z,356
2023-01-06T13:35:15.965Z,356
2023-01-06T13:36:16.789Z,356
2023-01-06T13:37:17.564Z,352
2023-01-06T13:38:19.331Z,336
2023-01-06T13:39:20.106Z,344
2023-01-06T13:40:21.415Z,344
2023-01-06T13:41:22.158Z,348
2023-01-06T13:42:22.969Z,356
2023-01-06T13:43:23.741Z,368
2023-01-06T13:44:24.493Z,364
2023-01-06T13:45:25.351Z,376
2023-01-06T13:46:26.212Z,364
2023-01-06T13:47:27.085Z,392
2023-01-06T13:48:27.679Z,384
2023-01-06T13:49:28.501Z,384
2023-01-06T13:50:29.908Z,392
2023-01-06T13:51:30.744Z,400
2023-01-06T13:52:31.510Z,392
2023-01-06T13:53:33.315Z,384
2023-01-06T13:54:34.184Z,376
2023-01-06T13:55:35.037Z,380
2023-01-06T13:56:35.958Z,376
2023-01-06T13:57:36.910Z,372
2023-01-06T13:59:08.546Z,368
2023-01-06T14:00:09.410Z,372
2023-01-06T14:01:11.108Z,372
2023-01-06T14:02:11.866Z,376
2023-01-06T14:03:13.435Z,380
2023-01-06T14:04:14.162Z,376
2023-01-06T14:05:14.999Z,376
2023-01-06T14:06:16.436Z,372
2023-01-06T14:07:17.191Z,360
2023-01-06T14:08:18.209Z,340
2023-01-06T14:09:19.062Z,328
2023-01-06T14:10:20.426Z,324
2023-01-06T14:11:21.996Z,328
2023-01-06T14:12:22.817Z,340
2023-01-06T14:13:23.716Z,340
2023-01-06T14:14:24.543Z,336
2023-01-06T14:15:25.336Z,332
2023-01-06T14:16:26.132Z,324
2023-01-06T14:17:26.979Z,324
2023-01-06T14:18:28.954Z,312
2023-01-06T14:19:29.777Z,296
2023-01-06T14:20:31.426Z,292
2023-01-06T14:21:32.186Z,284
2023-01-06T14:22:32.935Z,276
2023-01-06T14:23:35.268Z,272
2023-01-06T14:24:36.174Z,264
2023-01-06T14:25:36.822Z,268
2023-01-06T14:27:08.176Z,260
2023-01-06T14:28:08.939Z,248
2023-01-06T14:29:09.712Z,248
2023-01-06T14:30:10.499Z,252
2023-01-06T14:31:12.450Z,252
2023-01-06T14:32:13.260Z,260
2023-01-06T14:33:14.900Z,268
2023-01-06T14:34:15.708Z,276
2023-01-06T14:35:16.549Z,284
2023-01-06T14:36:17.413Z,288
2023-01-06T14:37:18.281Z,272
2023-01-06T14:38:19.274Z,272
2023-01-06T14:39:20.068Z,260
2023-01-06T14:40:21.820Z,252
2023-01-06T14:41:23.325Z,252
2023-01-06T14:42:24.139Z,244
2023-01-06T14:43:24.948Z,236
2023-01-06T14:44:25.812Z,220
2023-01-06T14:45:26.583Z,204
2023-01-06T14:46:27.399Z,196